aviador You're here:

GCLP Decoded Metar

LAS PALMAS in SPAIN
Report Time2017-11-22 21:30:00
UTC Time2017-11-22 21:55:41
Flight Rules vfr VFR
Wind300° at 02 kt
W.Decomp.*RWY 03: 0.2 kt HW 2 kt LCW
W.Rank300° ranks 14
Current wind is below 300° avg. (4.4)
Visibility9999 m
Phenomena:N/A
Clouds:N/A
Expected CloudBase > 2,400 ft AGL from Temp-Dew spread
CeilingNone
Temp19°C (ISA +4)
Dew Point13°C (68% RH)
QNH1014 hPa
Density Alt738 ft
Elevation82 ft
Report Wrong Elevation
Raw Report
GCLP 222130Z 30002KT CAVOK 19/13 Q1014 NOSIG=

Extra information for GCLP:More info

Metar Taf Metar & Taf Last 4 Metars F.Rules Stats Wind Profile Meteogram Temp Stats Airport Information Weather charts Add Link Nearby VenuesMetar ALERT Operation Metar Decoded Social comments